Time;durP1;ratioP1;P1;durP2;ratioP2;P2;SDS_P1;SDS_P2;PMS_P1;PMS_P2;Temp;Humidity;BMP_temperature;BMP_pressure;BME280_temperature;BME280_humidity;BME280_pressure;Samples;Min_cycle;Max_cycle;Signal;HPM_P1;HPM_P2
2021/04/16 00:00:22;;;;;;;;;;;;;;;8.87;73.21;99654.36;1759062;80;22731;-73
2021/04/16 00:02:49;;;;;;;;;;;;;;;8.85;73.25;99657.13;1755479;80;20399;-73
2021/04/16 00:05:18;;;;;;;;;;;;;;;8.85;73.29;99655.81;1750631;81;20220;-73
2021/04/16 00:07:45;;;;;;;;;;;;;;;8.84;73.32;99653.31;1761134;81;20300;-73
2021/04/16 00:10:17;;;;;;;;;;;;;;;8.82;73.39;99657.87;1768038;80;20208;-73
2021/04/16 00:12:46;;;;;;;;;;;;;;;8.80;73.42;99655.86;1769748;80;21191;-72
2021/04/16 00:15:17;;;;;;;;;;;;;;;8.77;73.49;99654.78;1767421;80;20252;-73
2021/04/16 00:17:47;;;;;;;;;;;;;;;8.74;73.60;99655.04;1750359;80;20219;-74
2021/04/16 00:20:17;;;;;;;;;;;;;;;8.71;73.68;99657.94;1769928;81;20481;-74
2021/04/16 00:22:44;;;;;;;;;;;;;;;8.69;73.73;99665.13;1713008;82;20221;-74
2021/04/16 00:25:14;;;;;;;;;;;;;;;8.67;73.78;99659.14;1726735;81;22008;-74
2021/04/16 00:27:41;;;;;;;;;;;;;;;8.66;73.87;99665.37;1775624;80;20287;-74
2021/04/16 00:30:10;;;;;;;;;;;;;;;8.64;73.94;99662.03;1778084;80;20401;-74
2021/04/16 00:32:38;;;;;;;;;;;;;;;8.64;74.05;99662.03;1753122;81;20462;-74
2021/04/16 00:35:08;;;;;;;;;;;;;;;8.64;74.13;99659.41;1752566;81;20306;-74
2021/04/16 00:37:37;;;;;;;;;;;;;;;8.63;74.20;99659.05;1754774;81;20299;-72
2021/04/16 00:40:09;;;;;;;;;;;;;;;8.63;74.26;99659.88;1756827;81;20510;-74
2021/04/16 00:42:36;;;;;;;;;;;;;;;8.63;74.30;99660.36;1754776;80;20240;-74
2021/04/16 00:45:05;;;;;;;;;;;;;;;8.62;74.35;99652.12;1751360;81;20311;-74
2021/04/16 00:47:32;;;;;;;;;;;;;;;8.59;74.38;99646.63;1749192;81;20252;-73
2021/04/16 00:50:10;;;;;;;;;;;;;;;8.59;74.45;99651.41;1756068;81;22140;-73
2021/04/16 00:52:39;;;;;;;;;;;;;;;8.58;74.48;99651.52;1722695;81;20510;-72
2021/04/16 00:55:08;;;;;;;;;;;;;;;8.57;74.54;99654.63;1750662;81;20235;-72
2021/04/16 00:57:37;;;;;;;;;;;;;;;8.58;74.60;99651.03;1760656;80;20227;-72
2021/04/16 01:00:07;;;;;;;;;;;;;;;8.57;74.68;99653.31;1739510;81;20284;-73
2021/04/16 01:02:34;;;;;;;;;;;;;;;8.56;74.73;99652.96;1768014;81;21950;-73
2021/04/16 01:05:05;;;;;;;;;;;;;;;8.56;74.78;99654.77;1737215;81;20351;-73
2021/04/16 01:07:33;;;;;;;;;;;;;;;8.54;74.84;99652.27;1762687;81;20220;-74
2021/04/16 01:10:00;;;;;;;;;;;;;;;8.55;74.90;99651.78;1756192;81;21431;-74
2021/04/16 01:12:28;;;;;;;;;;;;;;;8.54;74.95;99654.89;1757041;81;20224;-73
2021/04/16 01:15:08;;;;;;;;;;;;;;;8.53;74.99;99655.02;1741380;81;20466;-73
2021/04/16 01:17:31;;;;;;;;;;;;;;;8.53;75.04;99653.23;1756651;81;20280;-73
2021/04/16 01:20:06;;;;;;;;;;;;;;;8.55;75.05;99651.78;1729406;81;20221;-73
2021/04/16 01:22:45;;;;;;;;;;;;;;;8.56;75.11;99651.65;1758242;80;20308;-72
2021/04/16 01:25:13;;;;;;;;;;;;;;;8.57;75.11;99652.48;1750453;81;20392;-73
2021/04/16 01:27:42;;;;;;;;;;;;;;;8.55;75.19;99651.30;1768037;80;20797;-73
2021/04/16 01:30:16;;;;;;;;;;;;;;;8.52;75.24;99652.88;1758332;80;20385;-73
2021/04/16 01:32:45;;;;;;;;;;;;;;;8.50;75.31;99648.70;1718768;82;20231;-73
2021/04/16 01:35:16;;;;;;;;;;;;;;;8.49;75.36;99652.27;1721200;82;20766;-72
2021/04/16 01:37:45;;;;;;;;;;;;;;;8.47;75.41;99652.89;1767375;81;20219;-73
2021/04/16 01:40:13;;;;;;;;;;;;;;;8.47;75.47;99652.89;1775052;81;21780;-73
2021/04/16 01:42:42;;;;;;;;;;;;;;;8.46;75.50;99651.22;1761614;80;20228;-74
2021/04/16 01:45:24;;;;;;;;;;;;;;;8.43;75.53;99651.00;1772309;81;20211;-73
2021/04/16 01:48:00;;;;;;;;;;;;;;;8.42;75.56;99650.64;1751952;81;20493;-68
2021/04/16 01:50:28;;;;;;;;;;;;;;;8.41;75.58;99646.83;1744337;81;20223;-71
2021/04/16 01:52:59;;;;;;;;;;;;;;;8.41;75.62;99654.24;1747525;81;21889;-74
2021/04/16 01:55:27;;;;;;;;;;;;;;;8.41;75.69;99649.46;1739751;81;20226;-71
2021/04/16 01:57:55;;;;;;;;;;;;;;;8.40;75.71;99647.80;1759957;81;20215;-71
2021/04/16 02:00:27;;;;;;;;;;;;;;;8.40;75.73;99647.80;1760772;80;20224;-72
2021/04/16 02:02:56;;;;;;;;;;;;;;;8.39;75.70;99644.30;1759285;81;20499;-71
2021/04/16 02:05:24;;;;;;;;;;;;;;;8.34;75.73;99645.14;1760190;80;21895;-72
2021/04/16 02:07:54;;;;;;;;;;;;;;;8.32;75.76;99651.02;1759340;80;20458;-72
2021/04/16 02:10:21;;;;;;;;;;;;;;;8.29;75.78;99648.13;1775066;80;20270;-72
2021/04/16 02:12:49;;;;;;;;;;;;;;;8.27;75.82;99643.48;1752444;81;20317;-74
2021/04/16 02:15:18;;;;;;;;;;;;;;;8.27;75.84;99643.95;1756019;81;20223;-73
2021/04/16 02:17:45;;;;;;;;;;;;;;;8.26;75.86;99643.61;1747311;81;21891;-74
2021/04/16 02:20:17;;;;;;;;;;;;;;;8.24;75.85;99642.91;1751839;81;20233;-73
2021/04/16 02:22:45;;;;;;;;;;;;;;;8.22;75.91;99639.56;1763750;80;20231;-73
2021/04/16 02:25:12;;;;;;;;;;;;;;;8.19;75.98;99641.11;1763801;80;21028;-73
2021/04/16 02:27:40;;;;;;;;;;;;;;;8.17;76.02;99639.09;1726910;81;20215;-74
2021/04/16 02:30:09;;;;;;;;;;;;;;;8.14;76.05;99636.72;1723767;82;22512;-74
2021/04/16 02:32:37;;;;;;;;;;;;;;;8.12;76.09;99635.53;1747305;80;20218;-73
2021/04/16 02:35:06;;;;;;;;;;;;;;;8.11;76.12;99639.12;1750987;82;20228;-73
2021/04/16 02:37:33;;;;;;;;;;;;;;;8.11;76.12;99642.23;1752818;82;20241;-73
2021/04/16 02:40:00;;;;;;;;;;;;;;;8.09;76.11;99641.02;1749141;80;20275;-73
2021/04/16 02:42:27;;;;;;;;;;;;;;;8.07;76.11;99640.80;1734600;80;22596;-73
2021/04/16 02:44:55;;;;;;;;;;;;;;;8.02;76.12;99642.02;1731411;82;20825;-73
2021/04/16 02:47:22;;;;;;;;;;;;;;;8.01;76.23;99640.83;1724364;82;20251;-73
2021/04/16 02:49:49;;;;;;;;;;;;;;;7.98;76.29;99637.94;1739455;80;20518;-72
2021/04/16 02:52:17;;;;;;;;;;;;;;;7.97;76.37;99640.70;1750793;82;20228;-72
2021/04/16 02:54:45;;;;;;;;;;;;;;;7.95;76.51;99635.56;1751861;80;22330;-73
2021/04/16 02:57:14;;;;;;;;;;;;;;;7.95;76.65;99644.77;1741887;82;20231;-74
2021/04/16 02:59:41;;;;;;;;;;;;;;;7.94;76.76;99643.59;1735818;80;20309;-73
2021/04/16 03:02:08;;;;;;;;;;;;;;;7.94;76.87;99637.01;1742244;80;20523;-73
2021/04/16 03:04:37;;;;;;;;;;;;;;;7.94;76.97;99643.59;1730126;80;20232;-73
2021/04/16 03:07:05;;;;;;;;;;;;;;;7.94;77.06;99639.16;1737041;82;21841;-74
2021/04/16 03:09:32;;;;;;;;;;;;;;;7.95;77.18;99645.25;1735393;80;20952;-73
2021/04/16 03:11:59;;;;;;;;;;;;;;;7.94;77.24;99644.42;1722540;83;20242;-73
2021/04/16 03:14:26;;;;;;;;;;;;;;;7.94;77.33;99644.42;1722581;82;20281;-73
2021/04/16 03:16:54;;;;;;;;;;;;;;;7.95;77.37;99643.94;1725203;82;20223;-73
2021/04/16 03:19:21;;;;;;;;;;;;;;;7.96;77.46;99644.29;1724374;82;22511;-74
2021/04/16 03:21:48;;;;;;;;;;;;;;;7.98;77.50;99651.57;1705454;82;20224;-75
2021/04/16 03:24:15;;;;;;;;;;;;;;;7.97;77.58;99649.91;1724621;82;20240;-74
2021/04/16 03:26:44;;;;;;;;;;;;;;;7.97;77.61;99653.84;1733380;82;20269;-74
2021/04/16 03:29:12;;;;;;;;;;;;;;;7.98;77.66;99656.83;1712516;82;20219;-73
2021/04/16 03:31:39;;;;;;;;;;;;;;;7.99;77.70;99656.70;1726569;82;21880;-73
2021/04/16 03:34:08;;;;;;;;;;;;;;;7.99;77.77;99658.50;1726680;82;20480;-73
2021/04/16 03:36:36;;;;;;;;;;;;;;;7.98;77.85;99658.98;1716006;83;20407;-73
2021/04/16 03:39:06;;;;;;;;;;;;;;;7.98;77.93;99661.61;1714523;82;20900;-73
2021/04/16 03:41:33;;;;;;;;;;;;;;;8.00;77.96;99665.42;1680223;83;20250;-73
2021/04/16 03:44:01;;;;;;;;;;;;;;;8.00;78.00;99669.38;1714140;83;22529;-73
2021/04/16 03:46:28;;;;;;;;;;;;;;;7.98;78.07;99669.50;1713005;83;20211;-73
2021/04/16 03:48:55;;;;;;;;;;;;;;;7.97;78.10;99671.77;1715808;83;20271;-74
2021/04/16 03:51:24;;;;;;;;;;;;;;;7.98;78.20;99677.39;1714700;83;20313;-73
2021/04/16 03:53:51;;;;;;;;;;;;;;;7.96;78.23;99679.31;1696741;82;20287;-74
2021/04/16 03:56:18;;;;;;;;;;;;;;;7.95;78.25;99681.59;1717523;83;21788;-76
2021/04/16 03:58:46;;;;;;;;;;;;;;;7.95;78.31;99675.49;1713989;83;20860;-73
2021/04/16 04:01:13;;;;;;;;;;;;;;;7.93;78.38;99678.73;1717394;83;20219;-73
2021/04/16 04:03:41;;;;;;;;;;;;;;;7.91;78.44;99680.62;1725538;82;20981;-72
2021/04/16 04:06:08;;;;;;;;;;;;;;;7.88;78.53;99677.77;1733659;82;20501;-73
2021/04/16 04:08:35;;;;;;;;;;;;;;;7.90;78.63;99681.58;1744202;81;21676;-74
2021/04/16 04:11:03;;;;;;;;;;;;;;;7.89;78.72;99687.32;1745272;81;20375;-72
2021/04/16 04:13:31;;;;;;;;;;;;;;;7.88;78.77;99688.28;1744876;82;20269;-73
2021/04/16 04:16:01;;;;;;;;;;;;;;;7.89;78.84;99686.00;1726128;82;20275;-70
2021/04/16 04:18:29;;;;;;;;;;;;;;;7.91;78.90;99685.88;1744822;81;20336;-71
2021/04/16 04:20:58;;;;;;;;;;;;;;;7.92;78.96;99684.95;1744107;82;21882;-73
2021/04/16 04:23:25;;;;;;;;;;;;;;;7.94;79.02;99685.17;1744269;82;20233;-71
2021/04/16 04:25:52;;;;;;;;;;;;;;;7.97;79.07;99689.34;1747435;82;20214;-72
2021/04/16 04:28:20;;;;;;;;;;;;;;;8.00;79.14;99695.19;1719731;82;21323;-73
2021/04/16 04:30:47;;;;;;;;;;;;;;;8.02;79.19;99695.09;1736179;81;20359;-71
2021/04/16 04:33:15;;;;;;;;;;;;;;;8.03;79.26;99692.81;1736601;81;22983;-73
2021/04/16 04:35:42;;;;;;;;;;;;;;;8.05;79.29;99692.21;1741639;80;20654;-73
2021/04/16 04:38:09;;;;;;;;;;;;;;;8.06;79.34;99695.19;1748240;81;20217;-73
2021/04/16 04:40:37;;;;;;;;;;;;;;;8.08;79.37;99690.64;1737286;82;20761;-72
2021/04/16 04:43:04;;;;;;;;;;;;;;;8.11;79.42;99698.30;1751430;81;20218;-72
2021/04/16 04:45:32;;;;;;;;;;;;;;;8.12;79.47;99699.14;1740891;80;22052;-74
2021/04/16 04:48:01;;;;;;;;;;;;;;;8.16;79.50;99698.76;1767332;80;20846;-72
2021/04/16 04:50:28;;;;;;;;;;;;;;;8.21;79.54;99696.61;1750552;80;20209;-74
2021/04/16 04:52:56;;;;;;;;;;;;;;;8.25;79.53;99701.97;1751921;80;21200;-75
2021/04/16 04:55:26;;;;;;;;;;;;;;;8.28;79.56;99696.93;1747390;81;20505;-74
2021/04/16 04:57:53;;;;;;;;;;;;;;;8.31;79.56;99698.86;1759368;80;22049;-75
2021/04/16 05:00:21;;;;;;;;;;;;;;;8.33;79.55;99700.88;1750237;81;21509;-74
2021/04/16 05:02:48;;;;;;;;;;;;;;;8.37;79.58;99697.53;1756723;81;20229;-74
2021/04/16 05:05:17;;;;;;;;;;;;;;;8.41;79.60;99696.83;1753775;81;20905;-75
2021/04/16 05:07:45;;;;;;;;;;;;;;;8.42;79.54;99686.17;1754567;81;20249;-74
2021/04/16 05:10:12;;;;;;;;;;;;;;;8.48;79.59;99690.08;1748239;81;21832;-75
2021/04/16 05:12:39;;;;;;;;;;;;;;;8.52;79.52;99696.30;1754061;80;20379;-74
2021/04/16 05:15:08;;;;;;;;;;;;;;;8.55;79.48;99698.67;1739395;80;20223;-74
2021/04/16 05:17:36;;;;;;;;;;;;;;;8.56;79.36;99693.77;1750905;80;21421;-74
2021/04/16 05:20:05;;;;;;;;;;;;;;;8.55;79.33;99696.05;1767752;80;20230;-74
2021/04/16 05:22:32;;;;;;;;;;;;;;;8.57;79.37;99700.69;1751923;80;22157;-76
2021/04/16 05:24:59;;;;;;;;;;;;;;;8.60;79.34;99703.58;1771239;80;21129;-75
2021/04/16 05:27:29;;;;;;;;;;;;;;;8.65;79.27;99696.61;1733609;81;20273;-74
2021/04/16 05:29:56;;;;;;;;;;;;;;;8.67;79.24;99695.99;1755117;81;21199;-74
2021/04/16 05:32:24;;;;;;;;;;;;;;;8.73;79.21;99691.55;1757652;81;20275;-74
2021/04/16 05:34:51;;;;;;;;;;;;;;;8.74;79.12;99698.00;1740144;81;22913;-74
2021/04/16 05:37:18;;;;;;;;;;;;;;;8.76;79.03;99699.19;1777239;80;20268;-74
2021/04/16 05:39:45;;;;;;;;;;;;;;;8.77;78.98;99698.22;1763793;80;20216;-75
2021/04/16 05:42:13;;;;;;;;;;;;;;;8.78;78.92;99699.89;1751269;80;20273;-75
2021/04/16 05:44:40;;;;;;;;;;;;;;;8.76;78.85;99697.88;1752021;80;20221;-76
2021/04/16 05:47:08;;;;;;;;;;;;;;;8.77;78.81;99699.05;1734739;80;22048;-74
2021/04/16 05:49:36;;;;;;;;;;;;;;;8.79;78.83;99699.79;1755655;80;20387;-75
2021/04/16 05:52:03;;;;;;;;;;;;;;;8.84;78.73;99698.91;1759068;80;20281;-75
2021/04/16 05:54:30;;;;;;;;;;;;;;;8.87;78.59;99702.59;1758197;81;20477;-74
2021/04/16 05:56:58;;;;;;;;;;;;;;;8.89;78.46;99702.02;1758162;81;20279;-75
2021/04/16 05:59:25;;;;;;;;;;;;;;;8.92;78.45;99702.71;1752101;81;22080;-72
2021/04/16 06:01:52;;;;;;;;;;;;;;;8.95;78.37;99703.28;1753136;81;20266;-75
2021/04/16 06:04:20;;;;;;;;;;;;;;;8.98;78.36;99708.31;1759341;80;20295;-77
2021/04/16 06:06:48;;;;;;;;;;;;;;;9.00;78.27;99705.06;1758282;80;20477;-74
2021/04/16 06:09:15;;;;;;;;;;;;;;;9.06;78.23;99708.97;1755659;80;20522;-75
2021/04/16 06:11:44;;;;;;;;;;;;;;;9.08;78.12;99709.70;1760859;81;20386;-78
2021/04/16 06:14:11;;;;;;;;;;;;;;;9.08;78.03;99701.31;1755795;81;20315;-76
2021/04/16 06:16:39;;;;;;;;;;;;;;;9.13;78.03;99708.33;1759568;80;20426;-79
2021/04/16 06:19:06;;;;;;;;;;;;;;;9.15;77.84;99702.93;1755271;81;20370;-77
2021/04/16 06:21:34;;;;;;;;;;;;;;;9.14;77.72;99707.84;1758469;80;20574;-77
2021/04/16 06:24:02;;;;;;;;;;;;;;;9.16;77.69;99712.02;1759361;81;22349;-84
2021/04/16 06:26:30;;;;;;;;;;;;;;;9.17;77.62;99712.40;1744846;81;21282;-79
2021/04/16 06:29:02;;;;;;;;;;;;;;;9.22;77.50;99717.27;1720020;80;20264;-81
2021/04/16 06:31:26;;;;;;;;;;;;;;;9.24;77.32;99714.02;1764140;80;20481;-75
2021/04/16 06:33:54;;;;;;;;;;;;;;;9.29;77.31;99717.59;1759841;80;20801;-78
2021/04/16 06:36:21;;;;;;;;;;;;;;;9.33;77.21;99712.41;1747302;80;23394;-76
2021/04/16 06:38:49;;;;;;;;;;;;;;;9.38;77.14;99717.65;1752136;80;20807;-79
2021/04/16 06:41:20;;;;;;;;;;;;;;;9.44;77.13;99718.42;1753028;80;20231;-77
2021/04/16 06:43:49;;;;;;;;;;;;;;;9.52;76.88;99718.27;1759143;80;21372;-78
2021/04/16 06:46:20;;;;;;;;;;;;;;;9.56;76.76;99722.33;1759124;80;20311;-78
2021/04/16 06:48:48;;;;;;;;;;;;;;;9.60;76.62;99719.77;1761159;80;23006;-77
2021/04/16 06:51:17;;;;;;;;;;;;;;;9.64;76.26;99722.48;1742165;81;20252;-78
2021/04/16 06:53:56;;;;;;;;;;;;;;;9.66;76.16;99721.41;1756637;80;20240;-78
2021/04/16 06:56:33;;;;;;;;;;;;;;;9.69;75.97;99720.30;1737737;80;20479;-79
2021/04/16 06:59:13;;;;;;;;;;;;;;;9.69;75.59;99719.81;1750155;80;20254;-80
2021/04/16 07:01:45;;;;;;;;;;;;;;;9.68;75.44;99715.51;1777851;80;22514;-82
2021/04/16 07:04:17;;;;;;;;;;;;;;;9.72;75.32;99720.02;1773938;80;21124;-80
2021/04/16 07:06:44;;;;;;;;;;;;;;;9.77;75.17;99711.25;1761711;80;20228;-82
2021/04/16 07:09:17;;;;;;;;;;;;;;;9.80;74.98;99724.16;1761920;80;21606;-78
2021/04/16 07:11:55;;;;;;;;;;;;;;;9.82;74.57;99725.34;1766026;80;20212;-77
2021/04/16 07:14:41;;;;;;;;;;;;;;;9.80;74.18;99724.64;1752924;81;22373;-77
2021/04/16 07:17:14;;;;;;;;;;;;;;;9.82;74.14;99724.02;1751734;81;20207;-79
2021/04/16 07:19:43;;;;;;;;;;;;;;;9.88;73.99;99726.14;1749310;80;20217;-81
2021/04/16 07:22:25;;;;;;;;;;;;;;;9.93;73.91;99726.07;1733056;81;20492;-77
2021/04/16 07:24:53;;;;;;;;;;;;;;;9.96;73.51;99722.36;1759996;81;20225;-76
2021/04/16 07:27:26;;;;;;;;;;;;;;;9.99;73.47;99729.98;1766639;80;23408;-81
2021/04/16 07:29:57;;;;;;;;;;;;;;;10.04;73.41;99727.31;1748915;80;21505;-82
2021/04/16 07:32:37;;;;;;;;;;;;;;;10.11;73.25;99731.55;1749459;80;20225;-81
2021/04/16 07:35:25;;;;;;;;;;;;;;;10.14;72.77;99722.55;1757195;81;20313;-82
2021/04/16 07:38:14;;;;;;;;;;;;;;;10.19;72.72;99725.60;1752752;81;20258;-80
2021/04/16 07:40:44;;;;;;;;;;;;;;;10.23;72.49;99730.98;1756190;81;22154;-80
2021/04/16 07:43:17;;;;;;;;;;;;;;;10.24;72.16;99726.08;1760979;81;20242;-79
2021/04/16 07:45:46;;;;;;;;;;;;;;;10.24;72.14;99726.91;1749879;80;20508;-80
2021/04/16 07:48:25;;;;;;;;;;;;;;;10.25;72.08;99731.22;1731035;81;21308;-79
2021/04/16 07:50:53;;;;;;;;;;;;;;;10.26;72.12;99730.73;1729108;83;20433;-79
2021/04/16 07:53:30;;;;;;;;;;;;;;;10.25;72.09;99729.06;1728837;81;21976;-79
2021/04/16 07:56:14;;;;;;;;;;;;;;;10.23;72.29;99731.84;1738946;81;20417;-76
2021/04/16 07:58:44;;;;;;;;;;;;;;;10.23;72.43;99730.98;1744014;81;20551;-77
2021/04/16 08:01:15;;;;;;;;;;;;;;;10.23;72.41;99733.17;1744008;81;20857;-80
2021/04/16 08:03:51;;;;;;;;;;;;;;;10.21;72.48;99731.58;1762622;81;20233;-77
2021/04/16 08:06:39;;;;;;;;;;;;;;;10.20;72.48;99735.19;1716719;83;21928;-84
2021/04/16 08:09:30;;;;;;;;;;;;;;;10.19;72.69;99732.20;1714248;83;20221;-81
2021/04/16 08:12:04;;;;;;;;;;;;;;;10.21;72.80;99730.25;1713498;83;20200;-78
2021/04/16 08:14:33;;;;;;;;;;;;;;;10.20;72.81;99726.78;1718663;83;20312;-78
2021/04/16 08:17:03;;;;;;;;;;;;;;;10.20;73.04;99728.10;1704307;83;20224;-80
2021/04/16 08:19:32;;;;;;;;;;;;;;;10.21;73.42;99726.30;1735243;81;21965;-79
2021/04/16 08:22:02;;;;;;;;;;;;;;;10.19;73.82;99730.40;1757125;81;20439;-81
2021/04/16 08:24:55;;;;;;;;;;;;;;;10.18;74.31;99723.94;1759409;81;20296;-81
2021/04/16 08:27:45;;;;;;;;;;;;;;;10.18;74.67;99726.58;1747830;80;21163;-74
2021/04/16 08:30:19;;;;;;;;;;;;;;;10.21;75.25;99723.66;1741605;81;20228;-74
2021/04/16 08:33:07;;;;;;;;;;;;;;;10.24;75.53;99724.27;1733578;81;21994;-76
2021/04/16 08:35:54;;;;;;;;;;;;;;;10.34;75.98;99725.62;1720128;82;20516;-73
2021/04/16 08:38:25;;;;;;;;;;;;;;;10.47;76.20;99726.18;1710238;83;20412;-72
2021/04/16 08:40:54;;;;;;;;;;;;;;;10.62;76.17;99724.48;1710464;82;20255;-72
2021/04/16 08:43:42;;;;;;;;;;;;;;;10.68;75.66;99722.58;1732637;82;20278;-75
2021/04/16 08:46:25;;;;;;;;;;;;;;;10.68;75.43;99721.27;1728246;82;22548;-72
2021/04/16 08:48:55;;;;;;;;;;;;;;;10.67;75.00;99723.56;1715478;81;20826;-74
2021/04/16 08:51:26;;;;;;;;;;;;;;;10.57;74.78;99728.83;1744782;80;20266;-71
2021/04/16 08:54:02;;;;;;;;;;;;;;;10.50;74.60;99725.90;1776060;80;20468;-73
2021/04/16 08:56:36;;;;;;;;;;;;;;;10.46;74.59;99731.60;1756730;80;20277;-72
2021/04/16 08:59:12;;;;;;;;;;;;;;;10.42;74.76;99729.73;1755434;80;22827;-73
2021/04/16 09:01:53;;;;;;;;;;;;;;;10.41;74.87;99730.67;1755378;80;20297;-72
2021/04/16 09:04:27;;;;;;;;;;;;;;;10.43;75.16;99724.80;1738909;81;20300;-73
2021/04/16 09:06:56;;;;;;;;;;;;;;;10.43;75.55;99728.77;1752470;81;20440;-73
2021/04/16 09:09:45;;;;;;;;;;;;;;;10.45;75.80;99722.85;1772435;81;20522;-74
2021/04/16 09:12:39;;;;;;;;;;;;;;;10.48;75.72;99719.92;1763073;81;20321;-74
2021/04/16 09:15:22;;;;;;;;;;;;;;;10.46;75.48;99717.08;1755152;81;21683;-73
2021/04/16 09:17:55;;;;;;;;;;;;;;;10.50;75.70;99721.11;1707018;82;20239;-74
2021/04/16 09:20:28;;;;;;;;;;;;;;;10.57;75.60;99724.88;1775331;80;20304;-75
2021/04/16 09:22:57;;;;;;;;;;;;;;;10.64;75.37;99717.24;1712023;82;20224;-73
2021/04/16 09:25:41;;;;;;;;;;;;;;;10.72;75.37;99714.27;1761478;81;20728;-73
2021/04/16 09:28:26;;;;;;;;;;;;;;;10.84;75.20;99720.23;1739260;81;20250;-72
2021/04/16 09:30:55;;;;;;;;;;;;;;;10.95;74.62;99715.29;1745100;81;20221;-71
2021/04/16 09:33:40;;;;;;;;;;;;;;;10.98;74.08;99714.52;1726950;82;20228;-72
2021/04/16 09:36:13;;;;;;;;;;;;;;;10.96;73.71;99714.31;1773733;79;20209;-71
2021/04/16 09:38:57;;;;;;;;;;;;;;;10.97;73.78;99718.13;1743399;82;23252;-72
2021/04/16 09:41:31;;;;;;;;;;;;;;;11.04;73.89;99715.77;1743613;82;21218;-71
2021/04/16 09:44:00;;;;;;;;;;;;;;;11.09;73.86;99706.42;1761616;81;20216;-73
2021/04/16 09:46:34;;;;;;;;;;;;;;;11.10;73.52;99716.05;1763396;80;21354;-72
2021/04/16 09:49:10;;;;;;;;;;;;;;;10.96;72.96;99732.32;1759650;80;20311;-75
2021/04/16 09:51:42;;;;;;;;;;;;;;;10.46;67.50;99741.67;1762475;81;22979;-77
2021/04/16 09:54:17;;;;;;;;;;;;;;;9.84;68.39;99741.86;1752633;80;20229;-80
2021/04/16 09:57:08;;;;;;;;;;;;;;;9.34;69.01;99739.11;1764332;80;20221;-73
2021/04/16 09:59:40;;;;;;;;;;;;;;;9.06;70.10;99737.46;1758148;80;20462;-74
2021/04/16 10:02:17;;;;;;;;;;;;;;;8.90;70.91;99735.77;1761043;80;20272;-79
2021/04/16 10:05:04;;;;;;;;;;;;;;;8.83;71.70;99738.54;1758185;81;23057;-75
2021/04/16 10:07:53;;;;;;;;;;;;;;;8.81;72.38;99745.25;1742623;82;20566;-74
2021/04/16 10:10:38;;;;;;;;;;;;;;;8.83;73.20;99749.91;1746486;81;20224;-75
2021/04/16 10:13:21;;;;;;;;;;;;;;;8.81;73.79;99763.69;1743808;80;20911;-74
2021/04/16 10:15:52;;;;;;;;;;;;;;;8.77;74.16;99759.61;1760131;80;20494;-76
2021/04/16 10:18:27;;;;;;;;;;;;;;;8.71;74.37;99757.50;1761828;80;20213;-76
2021/04/16 10:21:06;;;;;;;;;;;;;;;8.69;74.53;99754.16;1760921;80;20378;-76
2021/04/16 11:16:36;;;;;;;;;;;;;;;7.60;78.12;99828.06;1744470;82;20216;-74
2021/04/16 12:38:46;;;;;;;;;;;;;;;8.79;72.11;99811.70;1743062;81;21832;-74
2021/04/16 12:41:16;;;;;;;;;;;;;;;8.68;71.55;99813.50;1748115;82;20268;-75
2021/04/16 12:43:44;;;;;;;;;;;;;;;8.49;71.61;99820.27;1743937;81;20252;-72
2021/04/16 12:46:14;;;;;;;;;;;;;;;8.29;71.67;99818.31;1763806;79;20288;-70
2021/04/16 12:48:42;;;;;;;;;;;;;;;8.14;71.68;99815.58;1747874;81;20284;-75
2021/04/16 12:51:11;;;;;;;;;;;;;;;7.94;71.86;99821.91;1760700;81;22091;-74
2021/04/16 12:53:38;;;;;;;;;;;;;;;7.85;72.08;99830.98;1762306;81;20390;-73
2021/04/16 12:56:07;;;;;;;;;;;;;;;7.72;72.54;99824.50;1750459;80;20234;-74
2021/04/16 12:58:42;;;;;;;;;;;;;;;7.66;73.22;99828.92;1751344;81;20529;-76
2021/04/16 13:01:11;;;;;;;;;;;;;;;7.62;73.56;99828.30;1726329;81;20248;-74
2021/04/16 13:03:41;;;;;;;;;;;;;;;7.56;73.90;99820.06;1757892;80;22056;-74
2021/04/16 13:06:28;;;;;;;;;;;;;;;7.62;74.36;99814.32;1757881;80;20499;-73
2021/04/16 13:08:55;;;;;;;;;;;;;;;7.71;74.58;99821.03;1765083;80;20216;-72
2021/04/16 13:11:22;;;;;;;;;;;;;;;7.71;73.63;99832.02;1748033;81;20244;-74
2021/04/16 13:13:50;;;;;;;;;;;;;;;7.62;73.53;99832.24;1750295;80;20696;-74
2021/04/16 13:16:18;;;;;;;;;;;;;;;7.55;73.54;99832.84;1698328;81;22370;-74
2021/04/16 13:18:48;;;;;;;;;;;;;;;7.47;73.61;99832.11;1755445;80;21065;-76
2021/04/16 13:21:23;;;;;;;;;;;;;;;7.40;73.88;99837.45;1728620;81;20239;-73
2021/04/16 13:23:50;;;;;;;;;;;;;;;7.30;73.70;99845.66;1742533;81;20482;-73
2021/04/16 13:26:17;;;;;;;;;;;;;;;7.22;73.76;99847.53;1745188;80;20240;-76
2021/04/16 13:28:45;;;;;;;;;;;;;;;7.13;73.85;99845.10;1759873;80;22085;-74
2021/04/16 13:31:12;;;;;;;;;;;;;;;7.12;73.95;99849.99;1758941;80;20381;-71
2021/04/16 13:33:42;;;;;;;;;;;;;;;7.09;74.18;99855.48;1760974;80;20213;-74
2021/04/16 13:36:18;;;;;;;;;;;;;;;7.02;74.03;99858.19;1781273;80;20259;-75
2021/04/16 13:38:46;;;;;;;;;;;;;;;6.95;74.09;99850.86;1749520;80;20230;-73
2021/04/16 13:41:13;;;;;;;;;;;;;;;6.89;74.12;99857.41;1747376;80;22845;-72
2021/04/16 13:43:40;;;;;;;;;;;;;;;6.85;74.32;99854.63;1791159;80;20884;-74
2021/04/16 13:46:11;;;;;;;;;;;;;;;6.83;74.52;99856.05;1760463;80;20399;-71
2021/04/16 13:48:38;;;;;;;;;;;;;;;6.83;74.66;99868.34;1761239;80;20479;-72
2021/04/16 13:51:06;;;;;;;;;;;;;;;6.80;74.79;99871.20;1761052;80;20224;-75
2021/04/16 13:53:33;;;;;;;;;;;;;;;6.76;74.66;99865.81;1751459;81;21884;-74
2021/04/16 13:56:02;;;;;;;;;;;;;;;6.75;74.80;99876.76;1750097;80;20786;-74
2021/04/16 13:58:29;;;;;;;;;;;;;;;6.74;74.56;99873.77;1754799;80;20217;-75
2021/04/16 14:00:56;;;;;;;;;;;;;;;6.73;74.24;99872.58;1765277;80;20546;-74
2021/04/16 14:03:27;;;;;;;;;;;;;;;6.68;74.03;99865.05;1766775;80;20241;-75
2021/04/16 14:05:56;;;;;;;;;;;;;;;6.68;74.24;99869.45;1777495;79;22060;-74
2021/04/16 14:08:30;;;;;;;;;;;;;;;6.68;73.89;99870.77;1751640;80;20460;-77
2021/04/16 14:10:57;;;;;;;;;;;;;;;6.69;73.97;99889.03;1752805;80;20216;-78
2021/04/16 14:13:28;;;;;;;;;;;;;;;6.68;73.74;99880.79;1764794;80;20442;-79
2021/04/16 14:16:06;;;;;;;;;;;;;;;6.69;73.84;99874.59;1765651;79;20221;-73
2021/04/16 14:18:38;;;;;;;;;;;;;;;6.70;73.31;99877.58;1773822;80;22074;-77
2021/04/16 14:21:08;;;;;;;;;;;;;;;6.75;73.37;99883.31;1777483;80;20390;-74
2021/04/16 14:23:35;;;;;;;;;;;;;;;6.81;73.35;99881.58;1771891;80;20209;-73
2021/04/16 14:26:04;;;;;;;;;;;;;;;6.85;73.36;99883.05;1760352;80;21762;-75
2021/04/16 14:28:32;;;;;;;;;;;;;;;6.80;72.93;99879.91;1756068;80;20229;-72
2021/04/16 14:30:59;;;;;;;;;;;;;;;6.76;73.19;99888.13;1772813;80;22083;-73
2021/04/16 14:33:28;;;;;;;;;;;;;;;6.76;73.25;99890.75;1774704;80;20383;-74
2021/04/16 14:35:55;;;;;;;;;;;;;;;6.71;72.96;99896.31;1771468;80;20226;-75
2021/04/16 14:38:23;;;;;;;;;;;;;;;6.63;73.21;99890.77;1758502;80;20913;-80
2021/04/16 14:40:50;;;;;;;;;;;;;;;6.58;73.46;99895.03;1764434;80;20226;-78
2021/04/16 14:43:17;;;;;;;;;;;;;;;6.50;72.77;99903.91;1764710;80;22070;-75
2021/04/16 14:45:47;;;;;;;;;;;;;;;6.42;72.88;99905.39;1757584;81;20874;-78
2021/04/16 14:48:15;;;;;;;;;;;;;;;6.33;72.97;99905.55;1759008;81;20635;-79
2021/04/16 14:50:42;;;;;;;;;;;;;;;6.29;73.15;99904.94;1759626;81;20487;-78
2021/04/16 14:53:12;;;;;;;;;;;;;;;6.27;73.22;99902.90;1759448;81;20490;-76
2021/04/16 14:55:41;;;;;;;;;;;;;;;6.21;73.15;99907.25;1735829;81;22086;-81
2021/04/16 14:58:08;;;;;;;;;;;;;;;6.14;73.01;99905.14;1759250;81;20837;-79
2021/04/16 15:00:35;;;;;;;;;;;;;;;6.05;72.88;99911.02;1754233;81;20491;-78
2021/04/16 15:03:04;;;;;;;;;;;;;;;5.98;73.05;99909.27;1754541;81;20761;-77
2021/04/16 15:05:33;;;;;;;;;;;;;;;5.93;73.19;99912.22;1756683;81;20271;-76
2021/04/16 15:08:03;;;;;;;;;;;;;;;5.87;73.30;99908.66;1748021;80;22071;-76
2021/04/16 15:10:32;;;;;;;;;;;;;;;5.86;73.46;99910.07;1767219;80;20386;-75
2021/04/16 15:12:59;;;;;;;;;;;;;;;5.87;73.57;99909.13;1763096;80;20273;-80
2021/04/16 15:15:32;;;;;;;;;;;;;;;5.85;73.67;99897.44;1753519;80;20238;-76
2021/04/16 15:17:59;;;;;;;;;;;;;;;5.82;73.26;99891.11;1777235;80;20254;-77
2021/04/16 15:20:30;;;;;;;;;;;;;;;5.74;73.03;99890.30;1766626;80;21763;-78
2021/04/16 15:22:58;;;;;;;;;;;;;;;5.68;73.16;99888.55;1766449;80;20377;-76
2021/04/16 15:25:26;;;;;;;;;;;;;;;5.64;73.13;99891.86;1759841;80;20257;-82